الصفحة الرئيسية
METAR-TAF:

METAR-TAF

مطار :

بونبي, مايكرونيزيا

دائرة عرض: 06-59N, خط طول: 158-12E, ارتفاع: 2 متر

مراقبة الطقس الحالي

تاريخ ووقت الإصدار 7ساعات و 7 دقيقة قبل الساعة 12:58UTC
ريح 4 عقدة من الشرق/الشمال الشرقي
درجة الحرارة 27°درجة مئوية
الرطوبة 89%
ضغط 1011 hPa
الرؤية: 24.1 كم
غيوم متفرقة على ارتفاع 1800 قدم
ملبد بالغيوم على ارتفاع 30000 قدم

METAR: PTPN 221258Z 06004KT 15SM SCT018 OVC300 27/25 A2984 RMK LAST

زمن: 07:05 (20:05 UTC)

توقعات

تاريخ ووقت الإصدار 8ساعات و 45 دقيقة قبل الساعة 11:20UTC
التوقعات صالحة من22 الساعة 12 UTC إلى 23 الساعة 12 UTC
ريح 9 عقدة من الشرق
الرؤية: 10 كم
غيوم متفرقة على ارتفاع 1800 قدم
غيوم مفككة على ارتفاع 12000 قدم
زخات في الجوار
مؤقت
من 22 الساعة 12 UTC إلى 22 الساعة 16 UTC
الرؤية: 6.4 كم
غيوم مفككة على ارتفاع 1800 قدم
زخات من المطر,

TAF: PTPN 221120Z 2212/2312 10009KT P6SM VCSH SCT018 BKN120 TEMPO 2212/2216 4SM SHRA BKN018

أرصاد الطقس والتوقعات من أكثر من 4000 مطار (تقارير الطقس للمطار METAR والتنبؤ بالطقس بالمطارTAF).

المحطات المتاحة هي النقط الصفراء والحمراء على الخريطة.

حرك المؤشر فوق النقطة لمعرفة اسم المحطة.

ثم انقر لمعرفة أرصاد وتوقعات الطقس.

لتغيير الخارطة: اضغط على الأزرار الخضراء مع رمز الصليب الأسود للتكبير. على الزر الأخضر مع شرطة للتصغير، أو على الأسهم الخضراء للخرائط المجاورة.


METAR-TAF: